• Join FlightAware (Why Join?)
  • Login
  • US Flag 
05:10AM EDT


 

Airport Tracker/Info


-or-


 

Live Flight TrackerFlight Track Log ✈ N1767P ✈ 15-Oct-2013 ✈ 5B2 - 5B2

Flight Track Log - Related Links

Times and Time Zones

All times are in EDT time to prevent confusion due to time zone crossing. See the N1767P flight status page for this flight to view local times or setup timezone preferences in your user account.

Time Position Orientation Groundspeed Altitude Reporting Facility
EDT Latitude Longitude Course Direction KTS MPH feet Rate Location/Type
05:55PM 43.0647 -73.8497 354° North 116 133 800  Level Boston Center
05:55PM 43.0878 -73.8531 354° North 133 153 1,600 960 Climbing Boston Center
05:56PM 43.0706 -73.8867 235° Southwest 132 152 2,600 1,020 Climbing Boston Center
05:57PM 43.0372 -73.8917 186° South 117 135 3,700 660 Climbing Boston Center
05:58PM 42.9997 -73.8992 188° South 122 140 4,000 120 Climbing Boston Center
06:00PM 42.9578 -73.9097 190° South 134 154 4,000  Level Boston Center
06:01PM 42.9222 -73.9144 186° South 132 152 4,000  Level Boston Center
06:02PM 42.8847 -73.9108 176° South 130 150 4,000  Level Boston Center
06:03PM 42.8514 -73.9100 179° South 120 138 4,000  Level Boston Center
06:04PM 42.8142 -73.9061 176° South 123 142 4,000 -240 Level Boston Center
06:05PM 42.7786 -73.9025 176° South 145 167 3,600 -480 Descending Boston Center
06:06PM 42.7369 -73.9017 179° South 159 183 3,100 -300 Descending Boston Center
06:07PM 42.6933 -73.8978 176° South 149 171 3,000 -120 Descending Boston Center
06:08PM 42.6494 -73.8939 176° South 140 161 2,900 -240 Descending Boston Center
06:09PM 42.6081 -73.8844 170° South 158 182 2,500 -360 Descending Boston Center
06:10PM 42.6003 -73.8364 102° East 157 181 2,300 -300 Descending Boston Center
06:11PM 42.6236 -73.8031 46° Northeast 146 168 2,000 -300 Descending Boston Center
06:12PM 42.6672 -73.8039 359° North 136 157 1,700 -480 Descending Boston Center
06:13PM 42.6922 -73.8072 354° North 117 135 1,100 -660 Descending Boston Center
06:14PM 42.7236 -73.8081 359° North 101 116 600 -120 Descending Boston Center
06:15PM 42.7694 -73.8089 359° North 118 136 900 240 Climbing Boston Center
06:16PM 42.7797 -73.8092 359° North 123 142 1,200 960 Climbing Boston Center
06:17PM 42.8192 -73.8186 350° North 146 168 2,300 840 Climbing Boston Center
06:18PM 42.8269 -73.8642 283° West 141 162 3,000 300 Climbing Boston Center
06:19PM 42.8450 -73.9211 293° West 162 186 3,000  Level Boston Center
06:20PM 42.8694 -73.9728 303° West 166 191 3,000  Level Boston Center
06:21PM 42.9044 -74.0103 322° Northwest 164 189 3,000  Level Boston Center